sensor_id;sensor_type;location;lat;lon;timestamp;pressure;altitude;pressure_sealevel;temperature;humidity
30081;BME280;16902;50.816;12.828;2023-04-01T00:04:25;96045.53;;;7.26;100.00
30081;BME280;16902;50.816;12.828;2023-04-01T00:09:27;96031.22;;;7.30;100.00
30081;BME280;16902;50.816;12.828;2023-04-01T00:14:30;96034.16;;;7.34;100.00
30081;BME280;16902;50.816;12.828;2023-04-01T00:19:32;96033.16;;;7.35;100.00
30081;BME280;16902;50.816;12.828;2023-04-01T00:24:34;96030.00;;;7.33;100.00
30081;BME280;16902;50.816;12.828;2023-04-01T00:29:36;96034.59;;;7.31;100.00
30081;BME280;16902;50.816;12.828;2023-04-01T00:34:38;96027.19;;;7.34;100.00
30081;BME280;16902;50.816;12.828;2023-04-01T00:39:41;96032.78;;;7.38;100.00
30081;BME280;16902;50.816;12.828;2023-04-01T00:44:49;96031.38;;;7.42;100.00
30081;BME280;16902;50.816;12.828;2023-04-01T00:49:53;96032.56;;;7.39;100.00
30081;BME280;16902;50.816;12.828;2023-04-01T00:54:58;96036.94;;;7.39;100.00
30081;BME280;16902;50.816;12.828;2023-04-01T01:00:05;96033.56;;;7.38;100.00
30081;BME280;16902;50.816;12.828;2023-04-01T01:05:13;96040.13;;;7.34;100.00
30081;BME280;16902;50.816;12.828;2023-04-01T01:10:19;96043.53;;;7.35;100.00
30081;BME280;16902;50.816;12.828;2023-04-01T01:20:53;96035.19;;;7.33;100.00
30081;BME280;16902;50.816;12.828;2023-04-01T01:31:19;96030.41;;;7.36;100.00
30081;BME280;16902;50.816;12.828;2023-04-01T01:36:26;96030.41;;;7.36;100.00
30081;BME280;16902;50.816;12.828;2023-04-01T01:41:31;96034.97;;;7.34;100.00
30081;BME280;16902;50.816;12.828;2023-04-01T01:46:34;96033.38;;;7.33;100.00
30081;BME280;16902;50.816;12.828;2023-04-01T01:51:37;96035.78;;;7.28;100.00
30081;BME280;16902;50.816;12.828;2023-04-01T01:56:47;96026.81;;;7.31;100.00
30081;BME280;16902;50.816;12.828;2023-04-01T02:01:52;96033.97;;;7.29;100.00
30081;BME280;16902;50.816;12.828;2023-04-01T02:07:01;96033.41;;;7.27;100.00
30081;BME280;16902;50.816;12.828;2023-04-01T02:12:06;96029.41;;;7.24;100.00
30081;BME280;16902;50.816;12.828;2023-04-01T02:17:26;96036.16;;;7.25;100.00
30081;BME280;16902;50.816;12.828;2023-04-01T02:22:32;96028.41;;;7.25;100.00
30081;BME280;16902;50.816;12.828;2023-04-01T02:27:35;96015.25;;;7.33;100.00
30081;BME280;16902;50.816;12.828;2023-04-01T02:32:38;96022.63;;;7.36;100.00
30081;BME280;16902;50.816;12.828;2023-04-01T02:37:42;96021.81;;;7.42;100.00
30081;BME280;16902;50.816;12.828;2023-04-01T02:42:44;96020.59;;;7.52;100.00
30081;BME280;16902;50.816;12.828;2023-04-01T02:47:47;96021.19;;;7.54;100.00
30081;BME280;16902;50.816;12.828;2023-04-01T02:52:49;96025.16;;;7.63;100.00
30081;BME280;16902;50.816;12.828;2023-04-01T02:57:50;96029.53;;;7.69;100.00
30081;BME280;16902;50.816;12.828;2023-04-01T03:02:53;96037.31;;;7.69;100.00
30081;BME280;16902;50.816;12.828;2023-04-01T03:07:55;96032.91;;;7.69;100.00
30081;BME280;16902;50.816;12.828;2023-04-01T03:12:57;96038.88;;;7.70;100.00
30081;BME280;16902;50.816;12.828;2023-04-01T03:18:00;96045.50;;;7.59;100.00
30081;BME280;16902;50.816;12.828;2023-04-01T03:23:02;96044.50;;;7.47;100.00
30081;BME280;16902;50.816;12.828;2023-04-01T03:28:04;96047.72;;;7.36;100.00
30081;BME280;16902;50.816;12.828;2023-04-01T03:33:06;96047.53;;;7.24;100.00
30081;BME280;16902;50.816;12.828;2023-04-01T03:38:08;96043.38;;;7.16;100.00
30081;BME280;16902;50.816;12.828;2023-04-01T03:43:10;96048.13;;;7.13;100.00
30081;BME280;16902;50.816;12.828;2023-04-01T03:48:16;96050.13;;;7.11;100.00
30081;BME280;16902;50.816;12.828;2023-04-01T03:53:18;96061.66;;;7.08;100.00
30081;BME280;16902;50.816;12.828;2023-04-01T03:58:21;96059.88;;;7.09;100.00
30081;BME280;16902;50.816;12.828;2023-04-01T04:03:24;96060.28;;;6.99;100.00
30081;BME280;16902;50.816;12.828;2023-04-01T04:08:26;96060.06;;;6.94;100.00
30081;BME280;16902;50.816;12.828;2023-04-01T04:13:28;96063.03;;;6.91;100.00
30081;BME280;16902;50.816;12.828;2023-04-01T04:18:35;96066.47;;;6.91;100.00
30081;BME280;16902;50.816;12.828;2023-04-01T04:23:37;96073.00;;;6.87;100.00
30081;BME280;16902;50.816;12.828;2023-04-01T04:28:40;96075.38;;;6.95;100.00
30081;BME280;16902;50.816;12.828;2023-04-01T04:33:42;96071.63;;;6.91;100.00
30081;BME280;16902;50.816;12.828;2023-04-01T04:38:44;96071.81;;;6.90;100.00
30081;BME280;16902;50.816;12.828;2023-04-01T04:43:54;96074.81;;;6.93;100.00
30081;BME280;16902;50.816;12.828;2023-04-01T04:48:58;96078.38;;;6.92;100.00
30081;BME280;16902;50.816;12.828;2023-04-01T04:54:00;96079.19;;;6.93;100.00
30081;BME280;16902;50.816;12.828;2023-04-01T04:59:16;96085.16;;;6.93;100.00
30081;BME280;16902;50.816;12.828;2023-04-01T05:04:25;96082.19;;;6.97;100.00
30081;BME280;16902;50.816;12.828;2023-04-01T05:09:27;96086.56;;;7.03;100.00
30081;BME280;16902;50.816;12.828;2023-04-01T05:14:29;96085.75;;;7.09;100.00
30081;BME280;16902;50.816;12.828;2023-04-01T05:19:41;96082.00;;;7.11;100.00
30081;BME280;16902;50.816;12.828;2023-04-01T05:24:43;96091.13;;;7.14;100.00
30081;BME280;16902;50.816;12.828;2023-04-01T05:29:46;96093.31;;;7.17;100.00
30081;BME280;16902;50.816;12.828;2023-04-01T05:35:20;96094.50;;;7.28;100.00
30081;BME280;16902;50.816;12.828;2023-04-01T05:40:22;96100.28;;;7.36;100.00
30081;BME280;16902;50.816;12.828;2023-04-01T05:45:24;96102.28;;;7.47;100.00
30081;BME280;16902;50.816;12.828;2023-04-01T05:50:44;96108.22;;;7.61;100.00
30081;BME280;16902;50.816;12.828;2023-04-01T05:55:46;96100.44;;;7.75;100.00
30081;BME280;16902;50.816;12.828;2023-04-01T06:00:48;96107.81;;;7.84;100.00
30081;BME280;16902;50.816;12.828;2023-04-01T06:06:14;96117.56;;;7.82;100.00
30081;BME280;16902;50.816;12.828;2023-04-01T07:00:54;96137.78;;;8.32;100.00
30081;BME280;16902;50.816;12.828;2023-04-01T07:06:03;96143.53;;;8.40;100.00
30081;BME280;16902;50.816;12.828;2023-04-01T07:11:15;96162.09;;;8.44;100.00
30081;BME280;16902;50.816;12.828;2023-04-01T07:16:47;96154.66;;;8.54;100.00
30081;BME280;16902;50.816;12.828;2023-04-01T07:21:55;96151.28;;;8.54;100.00
30081;BME280;16902;50.816;12.828;2023-04-01T07:27:11;96155.78;;;8.71;100.00
30081;BME280;16902;50.816;12.828;2023-04-01T07:37:35;96156.50;;;8.47;100.00
30081;BME280;16902;50.816;12.828;2023-04-01T07:53:26;96155.81;;;8.65;100.00
30081;BME280;16902;50.816;12.828;2023-04-01T08:04:21;96164.59;;;9.02;100.00
30081;BME280;16902;50.816;12.828;2023-04-01T08:15:26;96165.72;;;8.81;100.00
30081;BME280;16902;50.816;12.828;2023-04-01T08:20:48;96185.06;;;9.23;100.00
30081;BME280;16902;50.816;12.828;2023-04-01T08:26:05;96173.19;;;9.59;100.00
30081;BME280;16902;50.816;12.828;2023-04-01T08:31:43;96171.56;;;9.40;100.00
30081;BME280;16902;50.816;12.828;2023-04-01T08:36:56;96170.78;;;9.33;100.00
30081;BME280;16902;50.816;12.828;2023-04-01T08:42:23;96178.38;;;9.84;100.00
30081;BME280;16902;50.816;12.828;2023-04-01T08:48:08;96180.16;;;10.09;100.00
30081;BME280;16902;50.816;12.828;2023-04-01T09:04:22;96188.13;;;9.89;100.00
30081;BME280;16902;50.816;12.828;2023-04-01T09:15:16;96176.22;;;10.24;100.00
30081;BME280;16902;50.816;12.828;2023-04-01T09:52:24;96197.81;;;10.43;100.00
30081;BME280;16902;50.816;12.828;2023-04-01T10:04:15;96201.63;;;9.79;100.00
30081;BME280;16902;50.816;12.828;2023-04-01T10:20:52;96216.47;;;9.97;100.00
30081;BME280;16902;50.816;12.828;2023-04-01T10:26:24;96214.38;;;10.05;100.00
30081;BME280;16902;50.816;12.828;2023-04-01T11:33:19;96215.69;;;10.40;100.00
30081;BME280;16902;50.816;12.828;2023-04-01T11:38:38;96220.22;;;10.63;100.00
30081;BME280;16902;50.816;12.828;2023-04-01T11:44:18;96224.50;;;10.75;100.00
30081;BME280;16902;50.816;12.828;2023-04-01T11:49:51;96225.69;;;11.10;100.00
30081;BME280;16902;50.816;12.828;2023-04-01T12:12:04;96239.47;;;10.62;100.00
30081;BME280;16902;50.816;12.828;2023-04-01T12:34:09;96243.44;;;9.46;100.00
30081;BME280;16902;50.816;12.828;2023-04-01T12:39:33;96245.19;;;9.20;100.00
30081;BME280;16902;50.816;12.828;2023-04-01T12:45:04;96251.16;;;8.76;100.00
30081;BME280;16902;50.816;12.828;2023-04-01T12:50:36;96256.84;;;8.46;100.00
30081;BME280;16902;50.816;12.828;2023-04-01T12:55:48;96260.41;;;8.52;100.00
30081;BME280;16902;50.816;12.828;2023-04-01T13:06:52;96258.88;;;9.66;100.00
30081;BME280;16902;50.816;12.828;2023-04-01T13:28:23;96272.81;;;10.03;100.00
30081;BME280;16902;50.816;12.828;2023-04-01T13:33:40;96271.53;;;10.12;100.00
30081;BME280;16902;50.816;12.828;2023-04-01T13:44:34;96276.66;;;10.25;100.00
30081;BME280;16902;50.816;12.828;2023-04-01T13:50:01;96275.03;;;9.99;100.00
30081;BME280;16902;50.816;12.828;2023-04-01T14:06:27;96284.75;;;9.54;100.00
30081;BME280;16902;50.816;12.828;2023-04-01T14:11:41;96286.22;;;9.43;100.00
30081;BME280;16902;50.816;12.828;2023-04-01T14:16:59;96291.88;;;9.27;100.00
30081;BME280;16902;50.816;12.828;2023-04-01T14:44:18;96296.50;;;9.18;100.00
30081;BME280;16902;50.816;12.828;2023-04-01T14:49:24;96296.38;;;9.07;100.00
30081;BME280;16902;50.816;12.828;2023-04-01T14:54:33;96298.09;;;9.26;100.00
30081;BME280;16902;50.816;12.828;2023-04-01T14:59:48;96303.38;;;9.76;100.00
30081;BME280;16902;50.816;12.828;2023-04-01T15:37:23;96311.13;;;10.14;100.00
30081;BME280;16902;50.816;12.828;2023-04-01T15:42:59;96309.59;;;10.07;100.00
30081;BME280;16902;50.816;12.828;2023-04-01T15:48:10;96318.19;;;10.07;100.00
30081;BME280;16902;50.816;12.828;2023-04-01T16:15:13;96333.94;;;10.12;100.00
30081;BME280;16902;50.816;12.828;2023-04-01T16:20:25;96336.97;;;10.09;100.00
30081;BME280;16902;50.816;12.828;2023-04-01T16:25:40;96343.81;;;10.03;100.00
30081;BME280;16902;50.816;12.828;2023-04-01T16:36:30;96349.22;;;10.02;100.00
30081;BME280;16902;50.816;12.828;2023-04-01T16:41:41;96356.88;;;9.90;100.00
30081;BME280;16902;50.816;12.828;2023-04-01T16:46:52;96363.72;;;9.85;100.00
30081;BME280;16902;50.816;12.828;2023-04-01T16:52:12;96366.94;;;9.80;100.00
30081;BME280;16902;50.816;12.828;2023-04-01T16:57:19;96371.22;;;9.68;100.00
30081;BME280;16902;50.816;12.828;2023-04-01T17:02:33;96385.69;;;9.50;100.00
30081;BME280;16902;50.816;12.828;2023-04-01T17:07:44;96394.13;;;9.39;100.00
30081;BME280;16902;50.816;12.828;2023-04-01T17:45:49;96428.19;;;8.91;100.00
30081;BME280;16902;50.816;12.828;2023-04-01T17:50:44;96430.59;;;8.86;100.00
30081;BME280;16902;50.816;12.828;2023-04-01T17:56:20;96438.78;;;8.83;100.00
30081;BME280;16902;50.816;12.828;2023-04-01T18:17:25;96460.31;;;8.50;100.00
30081;BME280;16902;50.816;12.828;2023-04-01T18:27:40;96471.44;;;8.31;100.00
30081;BME280;16902;50.816;12.828;2023-04-01T18:38:11;96483.38;;;8.25;100.00
30081;BME280;16902;50.816;12.828;2023-04-01T19:00:05;96503.69;;;8.09;100.00
30081;BME280;16902;50.816;12.828;2023-04-01T19:05:11;96516.38;;;7.90;100.00
30081;BME280;16902;50.816;12.828;2023-04-01T19:21:16;96523.41;;;7.55;100.00
30081;BME280;16902;50.816;12.828;2023-04-01T19:31:42;96532.34;;;7.25;100.00
30081;BME280;16902;50.816;12.828;2023-04-01T19:36:54;96546.69;;;7.20;100.00
30081;BME280;16902;50.816;12.828;2023-04-01T19:47:46;96553.28;;;7.30;100.00
30081;BME280;16902;50.816;12.828;2023-04-01T19:52:54;96560.94;;;7.38;100.00
30081;BME280;16902;50.816;12.828;2023-04-01T19:58:24;96564.38;;;7.45;100.00
30081;BME280;16902;50.816;12.828;2023-04-01T20:19:33;96589.06;;;7.47;100.00
30081;BME280;16902;50.816;12.828;2023-04-01T20:24:45;96596.25;;;7.80;100.00
30081;BME280;16902;50.816;12.828;2023-04-01T20:30:01;96606.56;;;7.73;100.00
30081;BME280;16902;50.816;12.828;2023-04-01T20:45:40;96619.91;;;7.42;100.00
30081;BME280;16902;50.816;12.828;2023-04-01T20:50:57;96626.13;;;7.48;100.00
30081;BME280;16902;50.816;12.828;2023-04-01T21:01:43;96628.78;;;7.55;100.00
30081;BME280;16902;50.816;12.828;2023-04-01T21:06:52;96631.94;;;7.50;100.00
30081;BME280;16902;50.816;12.828;2023-04-01T21:22:58;96644.41;;;7.40;100.00
30081;BME280;16902;50.816;12.828;2023-04-01T21:38:47;96658.72;;;7.36;100.00
30081;BME280;16902;50.816;12.828;2023-04-01T21:44:10;96670.03;;;7.35;100.00
30081;BME280;16902;50.816;12.828;2023-04-01T21:55:20;96681.63;;;7.39;100.00
30081;BME280;16902;50.816;12.828;2023-04-01T22:00:32;96691.63;;;7.42;100.00
30081;BME280;16902;50.816;12.828;2023-04-01T22:05:49;96687.84;;;7.44;100.00
30081;BME280;16902;50.816;12.828;2023-04-01T22:10:59;96691.50;;;7.50;100.00
30081;BME280;16902;50.816;12.828;2023-04-01T22:16:30;96697.09;;;7.54;100.00
30081;BME280;16902;50.816;12.828;2023-04-01T22:32:09;96704.63;;;7.48;100.00
30081;BME280;16902;50.816;12.828;2023-04-01T22:42:43;96714.72;;;7.43;100.00
30081;BME280;16902;50.816;12.828;2023-04-01T22:47:57;96722.25;;;7.38;100.00
30081;BME280;16902;50.816;12.828;2023-04-01T22:53:30;96732.81;;;7.37;100.00
30081;BME280;16902;50.816;12.828;2023-04-01T22:58:43;96736.53;;;7.34;100.00
30081;BME280;16902;50.816;12.828;2023-04-01T23:03:49;96742.13;;;7.31;100.00
30081;BME280;16902;50.816;12.828;2023-04-01T23:09:02;96756.41;;;7.27;100.00
30081;BME280;16902;50.816;12.828;2023-04-01T23:14:24;96756.16;;;7.22;100.00
30081;BME280;16902;50.816;12.828;2023-04-01T23:20:00;96762.34;;;7.06;100.00
30081;BME280;16902;50.816;12.828;2023-04-01T23:41:29;96794.94;;;6.71;100.00
30081;BME280;16902;50.816;12.828;2023-04-01T23:46:33;96801.44;;;6.67;100.00
30081;BME280;16902;50.816;12.828;2023-04-01T23:51:38;96807.34;;;6.61;100.00
30081;BME280;16902;50.816;12.828;2023-04-01T23:56:44;96809.84;;;6.39;100.00
